Terminal Aerodrome Forecast
Issued by NWS

Home | Current Version | Previous Version | Text Only | Print | Product List | Glossary On
Versions: 1 2 3 4 5 6 7 8 9 10 11 12 13 14 15 16 17 18 19
000
FTUS45 KGJT 231138
TAFTEX
TAF
KTEX 231138Z 2312/2412 08007KT P6SM VCSH SCT045 OVC100
      WS020/23050KT
      TEMPO 2312/2316 23015G22KT 3SM -SN OVC025
     FM231700 23017G35KT 2SM -SN BLSN OVC025 WS020/23050KT
     FM240100 23019G34KT 1SM -SN BLSN OVC020
     FM240300 25014G25KT 1 1/2SM -SN BLSN OVC015
     FM240800 23007KT 3SM -SN OVC025=

USA.gov is the U.S. government's official web portal to all federal, state and local government web resources and services.